sensor_id;sensor_type;location;lat;lon;timestamp;pressure;altitude;pressure_sealevel;temperature;humidity
68230;BME280;55048;52.220;5.160;2023-04-01T00:01:00;98953.94;;;11.67;96.43
68230;BME280;55048;52.220;5.160;2023-04-01T00:03:27;98937.59;;;11.55;96.48
68230;BME280;55048;52.220;5.160;2023-04-01T00:05:54;98952.16;;;11.63;96.59
68230;BME280;55048;52.220;5.160;2023-04-01T00:08:20;98821.75;;;10.68;96.35
68230;BME280;55048;52.220;5.160;2023-04-01T00:10:45;98885.84;;;11.10;96.62
68230;BME280;55048;52.220;5.160;2023-04-01T00:13:11;98890.00;;;11.16;96.46
68230;BME280;55048;52.220;5.160;2023-04-01T00:15:37;98839.88;;;10.85;96.63
68230;BME280;55048;52.220;5.160;2023-04-01T00:18:03;98842.66;;;10.75;96.23
68230;BME280;55048;52.220;5.160;2023-04-01T00:20:28;98788.44;;;10.33;97.83
68230;BME280;55048;52.220;5.160;2023-04-01T00:22:54;98876.00;;;10.86;96.82
68230;BME280;55048;52.220;5.160;2023-04-01T00:25:20;98968.59;;;11.46;96.49
68230;BME280;55048;52.220;5.160;2023-04-01T00:27:46;98907.91;;;11.10;96.99
68230;BME280;55048;52.220;5.160;2023-04-01T00:30:12;98891.88;;;10.96;97.22
68230;BME280;55048;52.220;5.160;2023-04-01T00:32:37;98925.69;;;11.15;96.93
68230;BME280;55048;52.220;5.160;2023-04-01T00:35:03;98961.56;;;11.36;98.28
68230;BME280;55048;52.220;5.160;2023-04-01T00:37:29;98906.75;;;10.97;97.36
68230;BME280;55048;52.220;5.160;2023-04-01T00:39:55;98904.50;;;11.05;97.45
68230;BME280;55048;52.220;5.160;2023-04-01T00:42:21;98890.47;;;10.99;96.60
68230;BME280;55048;52.220;5.160;2023-04-01T00:44:54;98967.59;;;11.42;96.89
68230;BME280;55048;52.220;5.160;2023-04-01T00:47:20;98977.69;;;11.45;96.96
68230;BME280;55048;52.220;5.160;2023-04-01T00:49:50;98973.75;;;11.42;97.60
68230;BME280;55048;52.220;5.160;2023-04-01T00:52:21;98965.94;;;11.46;97.02
68230;BME280;55048;52.220;5.160;2023-04-01T00:54:49;98904.56;;;10.99;96.75
68230;BME280;55048;52.220;5.160;2023-04-01T00:57:25;98970.78;;;11.44;96.62
68230;BME280;55048;52.220;5.160;2023-04-01T00:59:54;98915.97;;;11.05;96.76
68230;BME280;55048;52.220;5.160;2023-04-01T01:02:20;98973.66;;;11.47;96.55
68230;BME280;55048;52.220;5.160;2023-04-01T01:04:46;98970.47;;;11.45;96.70
68230;BME280;55048;52.220;5.160;2023-04-01T01:10:11;98975.88;;;11.40;97.06
68230;BME280;55048;52.220;5.160;2023-04-01T01:12:45;98920.97;;;11.07;96.74
68230;BME280;55048;52.220;5.160;2023-04-01T01:15:26;98929.25;;;11.05;96.60
68230;BME280;55048;52.220;5.160;2023-04-01T01:18:07;99010.31;;;11.32;96.91
68230;BME280;55048;52.220;5.160;2023-04-01T01:21:02;98975.00;;;11.26;96.95
68230;BME280;55048;52.220;5.160;2023-04-01T01:32:30;98976.72;;;11.17;97.42
68230;BME280;55048;52.220;5.160;2023-04-01T01:34:36;98903.09;;;10.69;97.79
68230;BME280;55048;52.220;5.160;2023-04-01T01:37:13;98922.38;;;10.80;96.69
68230;BME280;55048;52.220;5.160;2023-04-01T01:39:42;98925.31;;;10.79;96.84
68230;BME280;55048;52.220;5.160;2023-04-01T01:42:11;98978.66;;;11.11;96.82
68230;BME280;55048;52.220;5.160;2023-04-01T01:44:39;98932.09;;;10.90;96.48
68230;BME280;55048;52.220;5.160;2023-04-01T01:47:07;98925.72;;;10.67;97.00
68230;BME280;55048;52.220;5.160;2023-04-01T01:49:35;98899.25;;;10.57;96.89
68230;BME280;55048;52.220;5.160;2023-04-01T01:52:02;98975.75;;;11.08;97.04
68230;BME280;55048;52.220;5.160;2023-04-01T01:54:27;98853.38;;;10.22;97.34
68230;BME280;55048;52.220;5.160;2023-04-01T01:57:08;98877.19;;;10.32;97.44
68230;BME280;55048;52.220;5.160;2023-04-01T01:59:38;98993.66;;;11.02;98.17
68230;BME280;55048;52.220;5.160;2023-04-01T02:02:06;98886.50;;;10.30;97.98
68230;BME280;55048;52.220;5.160;2023-04-01T02:04:36;98985.38;;;11.04;97.27
68230;BME280;55048;52.220;5.160;2023-04-01T02:07:05;98991.50;;;11.04;97.39
68230;BME280;55048;52.220;5.160;2023-04-01T02:09:32;98994.84;;;10.91;99.67
68230;BME280;55048;52.220;5.160;2023-04-01T02:12:04;98991.84;;;10.97;98.07
68230;BME280;55048;52.220;5.160;2023-04-01T02:14:47;98971.03;;;10.81;97.45
68230;BME280;55048;52.220;5.160;2023-04-01T02:17:20;98887.53;;;10.34;97.38
68230;BME280;55048;52.220;5.160;2023-04-01T02:19:50;99001.09;;;11.05;97.16
68230;BME280;55048;52.220;5.160;2023-04-01T02:22:21;98911.88;;;10.46;96.81
68230;BME280;55048;52.220;5.160;2023-04-01T02:24:48;98997.00;;;10.89;97.04
68230;BME280;55048;52.220;5.160;2023-04-01T02:27:15;98856.94;;;10.12;96.50
68230;BME280;55048;52.220;5.160;2023-04-01T02:29:40;99017.38;;;10.98;96.98
68230;BME280;55048;52.220;5.160;2023-04-01T02:32:07;98965.75;;;10.76;96.90
68230;BME280;55048;52.220;5.160;2023-04-01T02:34:34;99028.19;;;11.07;97.14
68230;BME280;55048;52.220;5.160;2023-04-01T02:37:00;99036.44;;;11.06;97.71
68230;BME280;55048;52.220;5.160;2023-04-01T02:39:25;98911.97;;;10.36;97.75
68230;BME280;55048;52.220;5.160;2023-04-01T02:41:52;99025.91;;;10.95;98.90
68230;BME280;55048;52.220;5.160;2023-04-01T02:44:17;98987.09;;;10.70;98.38
68230;BME280;55048;52.220;5.160;2023-04-01T02:46:43;98986.16;;;10.56;98.33
68230;BME280;55048;52.220;5.160;2023-04-01T02:49:08;98853.72;;;9.86;98.00
68230;BME280;55048;52.220;5.160;2023-04-01T02:51:34;98913.34;;;9.99;98.53
68230;BME280;55048;52.220;5.160;2023-04-01T02:54:00;99015.00;;;10.73;99.11
68230;BME280;55048;52.220;5.160;2023-04-01T02:56:25;99007.81;;;10.73;98.99
68230;BME280;55048;52.220;5.160;2023-04-01T02:58:51;98960.84;;;10.35;98.73
68230;BME280;55048;52.220;5.160;2023-04-01T03:01:17;99027.81;;;10.66;99.76
68230;BME280;55048;52.220;5.160;2023-04-01T03:03:42;98974.00;;;10.50;98.99
68230;BME280;55048;52.220;5.160;2023-04-01T03:06:10;99055.22;;;10.90;100.00
68230;BME280;55048;52.220;5.160;2023-04-01T03:08:36;99060.72;;;10.99;98.93
68230;BME280;55048;52.220;5.160;2023-04-01T03:11:01;99058.66;;;10.91;99.68
68230;BME280;55048;52.220;5.160;2023-04-01T03:13:27;98965.47;;;10.24;98.94
68230;BME280;55048;52.220;5.160;2023-04-01T03:15:53;99017.72;;;10.63;99.29
68230;BME280;55048;52.220;5.160;2023-04-01T03:18:18;98992.88;;;10.48;99.05
68230;BME280;55048;52.220;5.160;2023-04-01T03:20:44;99075.34;;;11.02;99.18
68230;BME280;55048;52.220;5.160;2023-04-01T03:23:10;99073.22;;;10.98;99.43
68230;BME280;55048;52.220;5.160;2023-04-01T03:25:37;99036.06;;;10.64;98.45
68230;BME280;55048;52.220;5.160;2023-04-01T03:28:02;99010.25;;;10.41;99.68
68230;BME280;55048;52.220;5.160;2023-04-01T03:30:28;98918.47;;;9.90;99.35
68230;BME280;55048;52.220;5.160;2023-04-01T03:32:57;99037.69;;;10.60;99.61
68230;BME280;55048;52.220;5.160;2023-04-01T03:35:23;99100.25;;;11.11;99.32
68230;BME280;55048;52.220;5.160;2023-04-01T03:37:50;99013.34;;;10.48;98.81
68230;BME280;55048;52.220;5.160;2023-04-01T03:40:16;99034.50;;;10.58;98.55
68230;BME280;55048;52.220;5.160;2023-04-01T03:42:42;99048.13;;;10.81;98.57
68230;BME280;55048;52.220;5.160;2023-04-01T03:45:08;99109.69;;;11.22;98.25
68230;BME280;55048;52.220;5.160;2023-04-01T03:47:34;98877.91;;;9.85;97.91
68230;BME280;55048;52.220;5.160;2023-04-01T03:50:00;99056.13;;;10.81;98.49
68230;BME280;55048;52.220;5.160;2023-04-01T03:52:26;99080.84;;;10.81;99.76
68230;BME280;55048;52.220;5.160;2023-04-01T03:54:51;99077.06;;;10.87;99.41
68230;BME280;55048;52.220;5.160;2023-04-01T03:57:17;99123.56;;;11.19;99.46
68230;BME280;55048;52.220;5.160;2023-04-01T03:59:43;99121.06;;;11.04;100.00
68230;BME280;55048;52.220;5.160;2023-04-01T04:02:08;99026.13;;;10.46;99.70
68230;BME280;55048;52.220;5.160;2023-04-01T04:04:34;99032.53;;;10.45;100.00
68230;BME280;55048;52.220;5.160;2023-04-01T04:06:59;99081.53;;;10.63;100.00
68230;BME280;55048;52.220;5.160;2023-04-01T04:09:27;99140.75;;;10.73;100.00
68230;BME280;55048;52.220;5.160;2023-04-01T04:11:54;99021.94;;;10.01;100.00
68230;BME280;55048;52.220;5.160;2023-04-01T04:14:20;99029.34;;;10.09;100.00
68230;BME280;55048;52.220;5.160;2023-04-01T04:16:46;98917.94;;;9.10;100.00
68230;BME280;55048;52.220;5.160;2023-04-01T04:19:12;99110.56;;;10.59;100.00
68230;BME280;55048;52.220;5.160;2023-04-01T04:21:39;99104.59;;;10.38;100.00
68230;BME280;55048;52.220;5.160;2023-04-01T04:24:05;99140.59;;;10.60;100.00
68230;BME280;55048;52.220;5.160;2023-04-01T04:26:51;99163.28;;;10.81;100.00
68230;BME280;55048;52.220;5.160;2023-04-01T04:29:16;99144.00;;;10.65;100.00
68230;BME280;55048;52.220;5.160;2023-04-01T04:31:42;99161.44;;;10.77;100.00
68230;BME280;55048;52.220;5.160;2023-04-01T04:34:08;99185.22;;;10.97;100.00
68230;BME280;55048;52.220;5.160;2023-04-01T04:36:34;99188.97;;;10.91;100.00
68230;BME280;55048;52.220;5.160;2023-04-01T04:39:00;99137.47;;;10.47;100.00
68230;BME280;55048;52.220;5.160;2023-04-01T04:41:28;99179.06;;;10.67;100.00
68230;BME280;55048;52.220;5.160;2023-04-01T04:43:55;99195.59;;;10.98;100.00
68230;BME280;55048;52.220;5.160;2023-04-01T04:46:22;99206.19;;;11.04;100.00
68230;BME280;55048;52.220;5.160;2023-04-01T04:48:52;99206.41;;;11.07;100.00
68230;BME280;55048;52.220;5.160;2023-04-01T04:51:19;99154.53;;;10.76;100.00
68230;BME280;55048;52.220;5.160;2023-04-01T04:53:45;99213.56;;;11.12;100.00
68230;BME280;55048;52.220;5.160;2023-04-01T04:56:11;99130.91;;;10.35;100.00
68230;BME280;55048;52.220;5.160;2023-04-01T04:58:43;99136.81;;;10.32;100.00
68230;BME280;55048;52.220;5.160;2023-04-01T05:01:14;99237.59;;;11.02;100.00
68230;BME280;55048;52.220;5.160;2023-04-01T05:03:40;99131.16;;;10.38;100.00
68230;BME280;55048;52.220;5.160;2023-04-01T05:06:08;99242.09;;;11.06;100.00
68230;BME280;55048;52.220;5.160;2023-04-01T05:08:34;99239.56;;;10.86;100.00
68230;BME280;55048;52.220;5.160;2023-04-01T05:11:00;99168.56;;;10.47;100.00
68230;BME280;55048;52.220;5.160;2023-04-01T05:13:28;99254.84;;;11.04;100.00
68230;BME280;55048;52.220;5.160;2023-04-01T05:15:54;98970.63;;;9.27;100.00
68230;BME280;55048;52.220;5.160;2023-04-01T05:18:21;99259.66;;;11.02;100.00
68230;BME280;55048;52.220;5.160;2023-04-01T05:20:51;99260.66;;;11.11;100.00
68230;BME280;55048;52.220;5.160;2023-04-01T05:23:18;99206.78;;;10.56;100.00
68230;BME280;55048;52.220;5.160;2023-04-01T05:25:45;98990.59;;;9.09;100.00
68230;BME280;55048;52.220;5.160;2023-04-01T05:28:11;99182.78;;;10.27;100.00
68230;BME280;55048;52.220;5.160;2023-04-01T05:30:39;99249.72;;;10.79;100.00
68230;BME280;55048;52.220;5.160;2023-04-01T05:33:34;99274.09;;;10.91;100.00
68230;BME280;55048;52.220;5.160;2023-04-01T05:36:12;99257.56;;;10.60;100.00
68230;BME280;55048;52.220;5.160;2023-04-01T05:38:38;99283.66;;;10.97;100.00
68230;BME280;55048;52.220;5.160;2023-04-01T05:41:06;99289.84;;;10.87;100.00
68230;BME280;55048;52.220;5.160;2023-04-01T05:43:37;99295.03;;;11.03;100.00
68230;BME280;55048;52.220;5.160;2023-04-01T05:46:20;99199.75;;;10.36;100.00
68230;BME280;55048;52.220;5.160;2023-04-01T05:48:52;99223.03;;;10.55;100.00
68230;BME280;55048;52.220;5.160;2023-04-01T05:51:19;99218.53;;;10.50;100.00
68230;BME280;55048;52.220;5.160;2023-04-01T05:53:45;99250.88;;;10.62;100.00
68230;BME280;55048;52.220;5.160;2023-04-01T05:56:11;99315.56;;;10.97;100.00
68230;BME280;55048;52.220;5.160;2023-04-01T05:58:40;99202.72;;;10.25;100.00
68230;BME280;55048;52.220;5.160;2023-04-01T06:01:10;99317.09;;;11.08;100.00
68230;BME280;55048;52.220;5.160;2023-04-01T06:03:36;99283.47;;;10.83;100.00
68230;BME280;55048;52.220;5.160;2023-04-01T06:06:02;99244.00;;;10.56;100.00
68230;BME280;55048;52.220;5.160;2023-04-01T06:08:29;99246.66;;;10.56;100.00
68230;BME280;55048;52.220;5.160;2023-04-01T06:16:44;99328.44;;;10.80;100.00
68230;BME280;55048;52.220;5.160;2023-04-01T06:19:27;99351.50;;;10.89;100.00
68230;BME280;55048;52.220;5.160;2023-04-01T06:31:03;99300.69;;;10.41;100.00
68230;BME280;55048;52.220;5.160;2023-04-01T06:36:45;99380.94;;;11.08;100.00
68230;BME280;55048;52.220;5.160;2023-04-01T06:42:22;99325.03;;;10.69;100.00
68230;BME280;55048;52.220;5.160;2023-04-01T06:54:20;99398.06;;;10.92;100.00
68230;BME280;55048;52.220;5.160;2023-04-01T06:57:29;99419.78;;;11.04;100.00
68230;BME280;55048;52.220;5.160;2023-04-01T06:59:59;99422.16;;;11.11;100.00
68230;BME280;55048;52.220;5.160;2023-04-01T07:02:39;99356.97;;;10.54;100.00
68230;BME280;55048;52.220;5.160;2023-04-01T07:05:07;99336.03;;;10.47;100.00
68230;BME280;55048;52.220;5.160;2023-04-01T07:07:37;99373.47;;;10.56;100.00
68230;BME280;55048;52.220;5.160;2023-04-01T07:10:25;99438.19;;;11.01;100.00
68230;BME280;55048;52.220;5.160;2023-04-01T07:13:20;99427.81;;;10.94;100.00
68230;BME280;55048;52.220;5.160;2023-04-01T07:16:32;99452.03;;;10.92;100.00
68230;BME280;55048;52.220;5.160;2023-04-01T07:19:20;99440.38;;;10.83;100.00
68230;BME280;55048;52.220;5.160;2023-04-01T07:22:20;99453.50;;;11.19;100.00
68230;BME280;55048;52.220;5.160;2023-04-01T07:25:39;99386.97;;;10.75;100.00
68230;BME280;55048;52.220;5.160;2023-04-01T07:28:32;99319.88;;;10.33;100.00
68230;BME280;55048;52.220;5.160;2023-04-01T07:36:43;99483.00;;;11.28;100.00
68230;BME280;55048;52.220;5.160;2023-04-01T07:39:36;99479.56;;;11.27;100.00
68230;BME280;55048;52.220;5.160;2023-04-01T07:45:33;99422.78;;;10.92;100.00
68230;BME280;55048;52.220;5.160;2023-04-01T07:50:47;99501.31;;;11.44;100.00
68230;BME280;55048;52.220;5.160;2023-04-01T07:53:59;99506.34;;;11.46;100.00
68230;BME280;55048;52.220;5.160;2023-04-01T07:56:28;99503.66;;;11.51;100.00
68230;BME280;55048;52.220;5.160;2023-04-01T07:59:24;99498.69;;;11.34;100.00
68230;BME280;55048;52.220;5.160;2023-04-01T08:07:24;99471.06;;;11.25;100.00
68230;BME280;55048;52.220;5.160;2023-04-01T08:10:36;99443.19;;;11.07;100.00
68230;BME280;55048;52.220;5.160;2023-04-01T08:13:57;99498.44;;;11.31;100.00
68230;BME280;55048;52.220;5.160;2023-04-01T08:21:58;99553.97;;;11.53;100.00
68230;BME280;55048;52.220;5.160;2023-04-01T08:24:36;99553.38;;;11.61;100.00
68230;BME280;55048;52.220;5.160;2023-04-01T08:27:13;99502.75;;;11.21;100.00
68230;BME280;55048;52.220;5.160;2023-04-01T08:29:48;99303.19;;;9.97;100.00
68230;BME280;55048;52.220;5.160;2023-04-01T08:32:28;99218.13;;;9.27;100.00
68230;BME280;55048;52.220;5.160;2023-04-01T08:35:16;99552.38;;;11.52;100.00
68230;BME280;55048;52.220;5.160;2023-04-01T08:37:46;99565.88;;;11.65;100.00
68230;BME280;55048;52.220;5.160;2023-04-01T08:40:41;99551.91;;;11.39;100.00
68230;BME280;55048;52.220;5.160;2023-04-01T08:47:09;99585.06;;;11.67;100.00
68230;BME280;55048;52.220;5.160;2023-04-01T08:53:06;99593.59;;;11.64;100.00
68230;BME280;55048;52.220;5.160;2023-04-01T08:55:47;99587.97;;;11.71;100.00
68230;BME280;55048;52.220;5.160;2023-04-01T09:01:35;99604.47;;;11.73;100.00
68230;BME280;55048;52.220;5.160;2023-04-01T09:15:26;99563.41;;;11.24;100.00
68230;BME280;55048;52.220;5.160;2023-04-01T09:18:12;99530.75;;;11.04;100.00
68230;BME280;55048;52.220;5.160;2023-04-01T09:20:55;99618.59;;;11.73;100.00
68230;BME280;55048;52.220;5.160;2023-04-01T09:24:05;99590.47;;;11.42;100.00
68230;BME280;55048;52.220;5.160;2023-04-01T09:27:03;99584.94;;;11.33;100.00
68230;BME280;55048;52.220;5.160;2023-04-01T09:37:58;99533.66;;;11.07;100.00
68230;BME280;55048;52.220;5.160;2023-04-01T09:46:14;99642.56;;;11.73;100.00
68230;BME280;55048;52.220;5.160;2023-04-01T09:51:51;99654.78;;;11.90;100.00
68230;BME280;55048;52.220;5.160;2023-04-01T10:00:35;99677.16;;;11.94;100.00
68230;BME280;55048;52.220;5.160;2023-04-01T10:03:47;99617.13;;;11.37;100.00
68230;BME280;55048;52.220;5.160;2023-04-01T10:23:45;99701.06;;;12.09;100.00
68230;BME280;55048;52.220;5.160;2023-04-01T10:29:09;99709.25;;;12.23;99.32
68230;BME280;55048;52.220;5.160;2023-04-01T10:31:57;99650.25;;;11.90;99.32
68230;BME280;55048;52.220;5.160;2023-04-01T10:43:31;99708.53;;;12.91;97.29
68230;BME280;55048;52.220;5.160;2023-04-01T10:46:21;99714.84;;;13.00;96.25
68230;BME280;55048;52.220;5.160;2023-04-01T11:04:26;99733.06;;;12.93;95.76
68230;BME280;55048;52.220;5.160;2023-04-01T11:07:46;99740.16;;;13.08;96.63
68230;BME280;55048;52.220;5.160;2023-04-01T11:30:15;99695.28;;;12.41;95.45
68230;BME280;55048;52.220;5.160;2023-04-01T11:35:51;99770.78;;;12.81;95.46
68230;BME280;55048;52.220;5.160;2023-04-01T11:38:51;99766.88;;;12.68;95.85
68230;BME280;55048;52.220;5.160;2023-04-01T11:41:46;99780.47;;;12.67;95.70
68230;BME280;55048;52.220;5.160;2023-04-01T11:44:34;99733.50;;;12.27;96.36
68230;BME280;55048;52.220;5.160;2023-04-01T11:47:38;99776.53;;;12.54;96.42
68230;BME280;55048;52.220;5.160;2023-04-01T11:50:42;99799.09;;;12.72;95.93
68230;BME280;55048;52.220;5.160;2023-04-01T11:53:19;99543.28;;;10.93;95.56
68230;BME280;55048;52.220;5.160;2023-04-01T11:56:09;99799.19;;;12.57;96.07
68230;BME280;55048;52.220;5.160;2023-04-01T12:01:32;99800.66;;;12.83;96.32
68230;BME280;55048;52.220;5.160;2023-04-01T12:06:46;99811.28;;;12.88;95.63
68230;BME280;55048;52.220;5.160;2023-04-01T12:09:25;99821.34;;;13.01;95.09
68230;BME280;55048;52.220;5.160;2023-04-01T12:12:08;99807.22;;;13.01;95.09
68230;BME280;55048;52.220;5.160;2023-04-01T12:14:46;99796.75;;;12.65;95.08
68230;BME280;55048;52.220;5.160;2023-04-01T12:17:30;99819.97;;;12.65;96.57
68230;BME280;55048;52.220;5.160;2023-04-01T12:20:26;99827.41;;;12.68;96.20
68230;BME280;55048;52.220;5.160;2023-04-01T12:28:59;99848.78;;;12.58;96.64
68230;BME280;55048;52.220;5.160;2023-04-01T12:34:37;99831.78;;;12.43;97.41
68230;BME280;55048;52.220;5.160;2023-04-01T12:37:20;99844.03;;;12.55;96.60
68230;BME280;55048;52.220;5.160;2023-04-01T12:42:31;99863.66;;;12.74;96.93
68230;BME280;55048;52.220;5.160;2023-04-01T13:11:14;99507.47;;;10.34;95.50
68230;BME280;55048;52.220;5.160;2023-04-01T13:13:34;99601.53;;;10.38;95.82
68230;BME280;55048;52.220;5.160;2023-04-01T13:16:32;99761.09;;;11.61;96.35
68230;BME280;55048;52.220;5.160;2023-04-01T13:26:18;99896.81;;;12.52;96.63
68230;BME280;55048;52.220;5.160;2023-04-01T13:28:56;99910.16;;;12.52;95.97
68230;BME280;55048;52.220;5.160;2023-04-01T13:31:38;99926.19;;;12.42;96.58
68230;BME280;55048;52.220;5.160;2023-04-01T13:34:30;99927.25;;;12.41;96.32
68230;BME280;55048;52.220;5.160;2023-04-01T13:42:19;99933.69;;;12.40;97.81
68230;BME280;55048;52.220;5.160;2023-04-01T13:44:54;99895.88;;;12.08;97.52
68230;BME280;55048;52.220;5.160;2023-04-01T13:50:21;99946.50;;;12.23;97.54
68230;BME280;55048;52.220;5.160;2023-04-01T13:55:30;99941.72;;;11.99;98.16
68230;BME280;55048;52.220;5.160;2023-04-01T14:03:27;99965.16;;;12.13;97.89
68230;BME280;55048;52.220;5.160;2023-04-01T14:08:55;99940.38;;;11.97;98.57
68230;BME280;55048;52.220;5.160;2023-04-01T14:11:58;99972.38;;;12.17;99.39
68230;BME280;55048;52.220;5.160;2023-04-01T14:14:55;99977.41;;;12.19;98.59
68230;BME280;55048;52.220;5.160;2023-04-01T14:28:55;99999.78;;;12.33;97.39
68230;BME280;55048;52.220;5.160;2023-04-01T14:31:42;99983.25;;;12.26;97.22
68230;BME280;55048;52.220;5.160;2023-04-01T14:34:21;99965.97;;;12.13;96.60
68230;BME280;55048;52.220;5.160;2023-04-01T14:36:58;100014.19;;;12.42;96.56
68230;BME280;55048;52.220;5.160;2023-04-01T14:45:22;100030.19;;;12.27;97.42
68230;BME280;55048;52.220;5.160;2023-04-01T14:50:46;100044.34;;;12.22;97.05
68230;BME280;55048;52.220;5.160;2023-04-01T14:53:34;100025.66;;;12.07;96.88
68230;BME280;55048;52.220;5.160;2023-04-01T14:56:03;99937.63;;;11.46;96.79
68230;BME280;55048;52.220;5.160;2023-04-01T14:58:50;100052.56;;;12.26;96.66
68230;BME280;55048;52.220;5.160;2023-04-01T15:01:40;100056.03;;;12.21;96.63
68230;BME280;55048;52.220;5.160;2023-04-01T15:04:32;100064.84;;;12.17;96.17
68230;BME280;55048;52.220;5.160;2023-04-01T15:10:07;100030.44;;;11.85;95.88
68230;BME280;55048;52.220;5.160;2023-04-01T15:12:41;100079.00;;;12.28;95.87
68230;BME280;55048;52.220;5.160;2023-04-01T15:18:40;100044.56;;;11.85;95.73
68230;BME280;55048;52.220;5.160;2023-04-01T15:21:22;100098.94;;;12.05;96.45
68230;BME280;55048;52.220;5.160;2023-04-01T15:27:15;100108.81;;;12.04;96.70
68230;BME280;55048;52.220;5.160;2023-04-01T15:30:09;100112.28;;;12.05;96.48
68230;BME280;55048;52.220;5.160;2023-04-01T15:38:02;100130.13;;;11.99;96.48
68230;BME280;55048;52.220;5.160;2023-04-01T15:40:44;100130.63;;;11.96;96.53
68230;BME280;55048;52.220;5.160;2023-04-01T15:52:05;100151.38;;;11.84;97.25
68230;BME280;55048;52.220;5.160;2023-04-01T15:55:00;100145.97;;;11.68;97.06
68230;BME280;55048;52.220;5.160;2023-04-01T15:57:45;100171.31;;;11.81;96.72
68230;BME280;55048;52.220;5.160;2023-04-01T16:03:39;100157.13;;;11.65;96.97
68230;BME280;55048;52.220;5.160;2023-04-01T16:14:43;100213.72;;;11.83;96.00
68230;BME280;55048;52.220;5.160;2023-04-01T16:22:38;100162.56;;;11.33;96.52
68230;BME280;55048;52.220;5.160;2023-04-01T16:25:41;100222.44;;;11.73;97.16
68230;BME280;55048;52.220;5.160;2023-04-01T16:28:32;100224.78;;;11.64;96.73
68230;BME280;55048;52.220;5.160;2023-04-01T16:31:43;99941.19;;;9.67;96.63
68230;BME280;55048;52.220;5.160;2023-04-01T16:34:22;100245.25;;;11.59;96.70
68230;BME280;55048;52.220;5.160;2023-04-01T16:36:55;100244.22;;;11.65;96.56
68230;BME280;55048;52.220;5.160;2023-04-01T16:43:15;100259.47;;;11.37;96.49
68230;BME280;55048;52.220;5.160;2023-04-01T16:49:00;100266.72;;;11.42;96.53
68230;BME280;55048;52.220;5.160;2023-04-01T16:51:34;100252.19;;;11.22;96.13
68230;BME280;55048;52.220;5.160;2023-04-01T16:54:31;100275.94;;;11.29;96.80
68230;BME280;55048;52.220;5.160;2023-04-01T16:57:11;100108.72;;;10.19;96.20
68230;BME280;55048;52.220;5.160;2023-04-01T17:02:49;100253.59;;;10.98;96.38
68230;BME280;55048;52.220;5.160;2023-04-01T17:05:17;100146.19;;;10.18;96.18
68230;BME280;55048;52.220;5.160;2023-04-01T17:16:14;100254.75;;;10.53;95.27
68230;BME280;55048;52.220;5.160;2023-04-01T17:21:57;100357.50;;;10.86;94.93
68230;BME280;55048;52.220;5.160;2023-04-01T17:27:39;100361.53;;;10.89;95.45
68230;BME280;55048;52.220;5.160;2023-04-01T17:35:37;100348.00;;;10.68;95.17
68230;BME280;55048;52.220;5.160;2023-04-01T17:38:19;100382.06;;;10.93;95.30
68230;BME280;55048;52.220;5.160;2023-04-01T17:41:01;100392.22;;;10.96;95.02
68230;BME280;55048;52.220;5.160;2023-04-01T17:46:22;100402.09;;;11.01;94.99
68230;BME280;55048;52.220;5.160;2023-04-01T17:48:56;100376.69;;;10.66;94.74
68230;BME280;55048;52.220;5.160;2023-04-01T17:51:34;100322.38;;;10.18;95.16
68230;BME280;55048;52.220;5.160;2023-04-01T17:57:30;100367.28;;;10.37;95.10
68230;BME280;55048;52.220;5.160;2023-04-01T18:02:40;100415.19;;;10.42;94.87
68230;BME280;55048;52.220;5.160;2023-04-01T18:05:26;100445.28;;;10.64;95.18
68230;BME280;55048;52.220;5.160;2023-04-01T18:08:15;100455.31;;;10.79;94.42
68230;BME280;55048;52.220;5.160;2023-04-01T18:21:51;100452.09;;;10.38;94.03
68230;BME280;55048;52.220;5.160;2023-04-01T18:24:30;100485.59;;;10.56;93.78
68230;BME280;55048;52.220;5.160;2023-04-01T18:27:16;100482.31;;;10.32;93.42
68230;BME280;55048;52.220;5.160;2023-04-01T18:30:11;100524.28;;;10.64;93.34
68230;BME280;55048;52.220;5.160;2023-04-01T18:32:57;100474.16;;;10.22;93.16
68230;BME280;55048;52.220;5.160;2023-04-01T18:35:47;100534.09;;;10.46;94.62
68230;BME280;55048;52.220;5.160;2023-04-01T18:38:27;100549.34;;;10.51;93.49
68230;BME280;55048;52.220;5.160;2023-04-01T18:41:12;100500.69;;;10.34;93.21
68230;BME280;55048;52.220;5.160;2023-04-01T18:44:00;100548.53;;;10.51;93.63
68230;BME280;55048;52.220;5.160;2023-04-01T18:49:21;100501.13;;;9.97;93.80
68230;BME280;55048;52.220;5.160;2023-04-01T18:51:53;100577.28;;;10.37;93.69
68230;BME280;55048;52.220;5.160;2023-04-01T18:57:14;100498.28;;;9.70;93.91
68230;BME280;55048;52.220;5.160;2023-04-01T18:59:49;100589.91;;;10.30;94.02
68230;BME280;55048;52.220;5.160;2023-04-01T19:07:52;100616.66;;;10.11;94.20
68230;BME280;55048;52.220;5.160;2023-04-01T19:21:40;100650.94;;;9.96;93.45
68230;BME280;55048;52.220;5.160;2023-04-01T19:25:09;100654.22;;;9.86;93.72
68230;BME280;55048;52.220;5.160;2023-04-01T19:27:37;100617.34;;;9.50;93.79
68230;BME280;55048;52.220;5.160;2023-04-01T19:33:01;100673.97;;;9.79;93.29
68230;BME280;55048;52.220;5.160;2023-04-01T19:35:39;100666.94;;;9.73;93.32
68230;BME280;55048;52.220;5.160;2023-04-01T19:38:15;100481.25;;;8.27;92.88
68230;BME280;55048;52.220;5.160;2023-04-01T19:41:06;100699.16;;;9.76;93.33
68230;BME280;55048;52.220;5.160;2023-04-01T19:43:53;100705.50;;;9.75;92.82
68230;BME280;55048;52.220;5.160;2023-04-01T19:49:51;100684.16;;;9.58;91.86
68230;BME280;55048;52.220;5.160;2023-04-01T19:52:33;100661.13;;;9.35;92.02
68230;BME280;55048;52.220;5.160;2023-04-01T19:55:14;100696.53;;;9.53;91.68
68230;BME280;55048;52.220;5.160;2023-04-01T20:00:28;100669.53;;;9.32;91.65
68230;BME280;55048;52.220;5.160;2023-04-01T20:08:18;100685.00;;;9.00;91.21
68230;BME280;55048;52.220;5.160;2023-04-01T20:19:42;100743.63;;;9.34;91.11
68230;BME280;55048;52.220;5.160;2023-04-01T20:28:05;100631.44;;;8.56;90.53